createdAt,value
2018-11-12T00:00:53.399Z,11.47
2018-11-12T00:05:50.794Z,11.50
2018-11-12T00:10:48.167Z,11.48
2018-11-12T00:15:47.418Z,11.47
2018-11-12T00:20:44.787Z,11.42
2018-11-12T00:25:42.165Z,11.48
2018-11-12T00:30:39.574Z,11.45
2018-11-12T00:35:37.555Z,11.58
2018-11-12T00:40:34.963Z,11.52
2018-11-12T00:45:32.318Z,11.66
2018-11-12T00:50:29.742Z,11.63
2018-11-12T00:55:27.147Z,11.62
2018-11-12T01:00:24.530Z,11.49
2018-11-12T01:05:21.911Z,11.52
2018-11-12T01:10:19.511Z,11.43
2018-11-12T01:15:18.111Z,11.33
2018-11-12T01:20:16.283Z,11.42
2018-11-12T01:25:14.181Z,11.43
2018-11-12T01:30:13.109Z,11.49
2018-11-12T01:35:11.475Z,11.25
2018-11-12T01:40:10.027Z,11.33
2018-11-12T01:45:09.322Z,11.17
2018-11-12T01:50:07.796Z,11.17
2018-11-12T01:55:06.031Z,11.16
2018-11-12T02:00:03.511Z,11.16
2018-11-12T02:05:00.972Z,11.23
2018-11-12T02:09:58.327Z,11.16
2018-11-12T02:14:55.723Z,11.18
2018-11-12T02:19:53.182Z,11.26
2018-11-12T02:24:50.593Z,11.28
2018-11-12T02:29:47.987Z,11.28
2018-11-12T02:34:45.398Z,11.20
2018-11-12T02:39:42.818Z,11.28
2018-11-12T02:44:40.216Z,11.05
2018-11-12T02:49:37.592Z,11.14
2018-11-12T02:54:35.008Z,11.09
2018-11-12T02:59:32.410Z,11.08
2018-11-12T03:04:29.836Z,11.13
2018-11-12T03:09:27.219Z,11.37
2018-11-12T03:14:24.631Z,11.36
2018-11-12T03:19:22.007Z,11.23
2018-11-12T03:24:19.403Z,11.36
2018-11-12T03:29:16.797Z,11.44
2018-11-12T03:34:14.222Z,11.34
2018-11-12T03:39:11.699Z,11.32
2018-11-12T03:44:09.157Z,11.44
2018-11-12T03:49:06.593Z,11.43
2018-11-12T03:54:04.333Z,11.48
2018-11-12T03:59:01.730Z,11.43
2018-11-12T04:03:59.131Z,11.45
2018-11-12T04:08:56.530Z,11.62
2018-11-12T04:13:53.926Z,11.57
2018-11-12T04:18:51.330Z,11.52
2018-11-12T04:23:48.743Z,11.43
2018-11-12T04:28:46.127Z,11.28
2018-11-12T04:33:43.511Z,11.10
2018-11-12T04:38:40.884Z,11.34
2018-11-12T04:43:38.275Z,11.37
2018-11-12T04:48:35.758Z,11.53
2018-11-12T04:53:33.146Z,11.52
2018-11-12T04:58:30.522Z,11.27
2018-11-12T05:03:27.967Z,11.16
2018-11-12T05:08:25.321Z,11.50
2018-11-12T05:13:22.718Z,11.42
2018-11-12T05:18:20.128Z,11.08
2018-11-12T05:23:17.594Z,11.06
2018-11-12T05:28:15.027Z,10.98
2018-11-12T05:33:12.482Z,11.08
2018-11-12T05:38:10.004Z,11.29
2018-11-12T05:43:07.398Z,11.26
2018-11-12T05:48:04.928Z,11.52
2018-11-12T05:53:03.553Z,11.28
2018-11-12T05:58:01.547Z,11.39
2018-11-12T06:02:59.173Z,11.41
2018-11-12T06:07:56.543Z,11.62
2018-11-12T06:12:55.031Z,11.66
2018-11-12T06:17:52.472Z,11.70
2018-11-12T06:22:51.014Z,11.70
2018-11-12T06:27:48.553Z,11.71
2018-11-12T06:32:45.988Z,11.66
2018-11-12T06:37:44.149Z,11.58
2018-11-12T06:42:41.774Z,11.64
2018-11-12T06:47:39.099Z,11.74
2018-11-12T06:52:36.560Z,11.66
2018-11-12T06:57:34.024Z,11.79
2018-11-12T07:02:38.189Z,11.74
2018-11-12T07:07:35.614Z,11.88
2018-11-12T07:12:33.060Z,11.97
2018-11-12T07:17:30.552Z,11.98
2018-11-12T07:22:29.659Z,12.02
2018-11-12T07:27:27.070Z,11.95
2018-11-12T07:32:24.502Z,12.05
2018-11-12T07:37:21.905Z,12.03
2018-11-12T07:42:19.338Z,11.95
2018-11-12T07:47:16.748Z,12.10
2018-11-12T07:52:14.169Z,12.14
2018-11-12T07:57:11.564Z,12.22
2018-11-12T08:02:09.038Z,12.24
2018-11-12T08:07:06.648Z,12.27
2018-11-12T08:12:04.207Z,12.35
2018-11-12T08:17:01.523Z,12.36
2018-11-12T08:21:58.967Z,12.35
2018-11-12T08:26:56.374Z,12.38
2018-11-12T08:31:53.788Z,12.51
2018-11-12T08:36:51.222Z,12.55
2018-11-12T08:41:48.647Z,12.72
2018-11-12T08:46:47.208Z,12.90
2018-11-12T08:51:44.589Z,13.12
2018-11-12T08:56:41.982Z,13.11
2018-11-12T09:01:39.434Z,13.38
2018-11-12T09:06:37.653Z,13.58
2018-11-12T09:11:35.070Z,13.77
2018-11-12T09:16:33.699Z,13.98
2018-11-12T09:21:31.121Z,13.82
2018-11-12T09:26:28.542Z,13.77
2018-11-12T09:31:26.852Z,13.76
2018-11-12T09:36:23.457Z,13.84
2018-11-12T09:41:21.058Z,14.08
2018-11-12T09:46:19.984Z,14.17
2018-11-12T09:51:17.391Z,14.24
2018-11-12T09:56:14.832Z,14.41
2018-11-12T10:01:12.471Z,14.73
2018-11-12T10:06:11.356Z,15.11
2018-11-12T10:11:09.671Z,15.21
2018-11-12T10:16:15.978Z,15.05
2018-11-12T10:21:10.504Z,15.26
2018-11-12T10:26:07.932Z,15.32
2018-11-12T10:31:05.393Z,15.21
2018-11-12T10:36:02.806Z,15.35
2018-11-12T10:41:00.288Z,15.45
2018-11-12T10:46:05.886Z,15.73
2018-11-12T10:51:05.170Z,15.75
2018-11-12T10:56:00.996Z,15.69
2018-11-12T11:01:03.988Z,15.65
2018-11-12T11:06:01.439Z,16.10
2018-11-12T11:10:58.935Z,16.36
2018-11-12T11:16:08.353Z,16.45
2018-11-12T11:21:05.883Z,16.58
2018-11-12T11:26:03.320Z,16.96
2018-11-12T11:31:00.777Z,17.41
2018-11-12T11:35:58.191Z,17.66
2018-11-12T11:40:55.715Z,17.94
2018-11-12T11:46:01.346Z,18.07
2018-11-12T11:50:58.934Z,18.15
2018-11-12T11:55:56.370Z,18.15
2018-11-12T12:00:55.000Z,18.01
2018-11-12T12:05:52.471Z,17.95
2018-11-12T12:10:50.054Z,18.00
2018-11-12T12:15:48.082Z,18.10
2018-11-12T12:20:45.490Z,18.19
2018-11-12T12:25:43.016Z,18.28
2018-11-12T12:30:40.423Z,18.41
2018-11-12T12:35:37.920Z,18.64
2018-11-12T12:40:35.355Z,18.52
2018-11-12T12:45:32.882Z,18.57
2018-11-12T12:50:30.270Z,18.67
2018-11-12T12:55:27.765Z,18.81
2018-11-12T13:00:26.297Z,18.84
2018-11-12T13:05:23.824Z,18.75
2018-11-12T13:10:22.299Z,18.59
2018-11-12T13:15:20.266Z,18.63
2018-11-12T13:20:19.053Z,18.75
2018-11-12T13:25:16.555Z,18.85
2018-11-12T13:30:20.261Z,19.29
2018-11-12T13:35:23.243Z,19.37
2018-11-12T13:40:23.796Z,19.23
2018-11-12T13:45:21.490Z,19.04
2018-11-12T13:50:20.092Z,19.02
2018-11-12T13:55:18.595Z,18.96
2018-11-12T14:00:17.249Z,19.01
2018-11-12T14:05:16.234Z,18.87
2018-11-12T14:10:15.898Z,18.65
2018-11-12T14:15:16.840Z,18.42
2018-11-12T14:20:14.376Z,18.38
2018-11-12T14:25:13.235Z,18.33
2018-11-12T14:30:12.679Z,18.36
2018-11-12T14:35:11.014Z,18.33
2018-11-12T14:40:09.606Z,17.62
2018-11-12T14:45:08.789Z,16.15
2018-11-12T14:50:06.374Z,15.17
2018-11-12T14:55:04.354Z,14.82
2018-11-12T15:00:01.837Z,14.57
2018-11-12T15:04:59.396Z,14.45
2018-11-12T15:09:56.854Z,14.36
2018-11-12T15:14:54.341Z,14.39
2018-11-12T15:19:51.739Z,14.30
2018-11-12T15:24:49.179Z,14.25
2018-11-12T15:29:46.607Z,14.51
2018-11-12T15:34:43.995Z,14.18
2018-11-12T15:39:41.532Z,14.11
2018-11-12T15:44:38.983Z,14.14
2018-11-12T15:49:36.424Z,14.06
2018-11-12T15:54:33.850Z,13.81
2018-11-12T15:59:31.311Z,13.76
2018-11-12T16:04:28.736Z,13.67
2018-11-12T16:09:26.136Z,13.64
2018-11-12T16:14:23.508Z,13.48
2018-11-12T16:19:20.989Z,13.39
2018-11-12T16:24:18.337Z,13.40
2018-11-12T16:29:15.843Z,13.38
2018-11-12T16:34:13.217Z,13.42
2018-11-12T16:39:11.300Z,13.38
2018-11-12T16:44:09.442Z,13.26
2018-11-12T16:49:06.851Z,13.19
2018-11-12T16:54:04.426Z,13.05
2018-11-12T16:59:01.835Z,12.86
2018-11-12T17:04:00.837Z,12.82
2018-11-12T17:08:58.659Z,12.84
2018-11-12T17:14:00.031Z,12.85
2018-11-12T17:19:02.726Z,12.88
2018-11-12T17:24:06.421Z,12.82
2018-11-12T17:29:15.470Z,12.69
2018-11-12T17:34:17.851Z,12.67
2018-11-12T17:39:15.353Z,12.59
2018-11-12T17:44:12.745Z,12.54
2018-11-12T17:49:10.223Z,12.71
2018-11-12T17:54:07.663Z,12.51
2018-11-12T17:59:05.120Z,12.13
2018-11-12T18:04:02.522Z,12.10
2018-11-12T18:08:59.895Z,12.02
2018-11-12T18:13:57.366Z,11.99
2018-11-12T18:18:54.877Z,12.01
2018-11-12T18:23:52.324Z,12.05
2018-11-12T18:28:49.708Z,12.15
2018-11-12T18:33:47.092Z,12.09
2018-11-12T18:38:44.539Z,11.95
2018-11-12T18:43:44.519Z,11.99
2018-11-12T18:48:42.018Z,12.04
2018-11-12T18:53:39.631Z,12.07
2018-11-12T18:58:37.042Z,11.98
2018-11-12T19:03:34.597Z,12.23
2018-11-12T19:08:32.011Z,12.20
2018-11-12T19:13:29.706Z,11.89
2018-11-12T19:18:27.198Z,11.81
2018-11-12T19:23:24.775Z,11.90
2018-11-12T19:28:22.373Z,12.02
2018-11-12T19:33:19.886Z,11.85
2018-11-12T19:38:17.348Z,11.94
2018-11-12T19:43:16.103Z,11.85
2018-11-12T19:48:13.598Z,11.68
2018-11-12T19:53:11.687Z,11.68
2018-11-12T19:58:09.091Z,11.83
2018-11-12T20:03:06.633Z,11.65
2018-11-12T20:08:04.078Z,11.64
2018-11-12T20:13:01.459Z,11.88
2018-11-12T20:17:58.829Z,12.02
2018-11-12T20:22:56.230Z,11.87
2018-11-12T20:27:54.460Z,11.59
2018-11-12T20:32:51.863Z,11.72
2018-11-12T20:37:49.254Z,12.00
2018-11-12T20:42:49.383Z,11.57
2018-11-12T20:47:48.117Z,11.33
2018-11-12T20:52:45.646Z,11.37
2018-11-12T20:57:43.168Z,11.47
2018-11-12T21:02:41.850Z,11.22
2018-11-12T21:07:39.267Z,11.17
2018-11-12T21:12:36.685Z,11.18
2018-11-12T21:17:34.178Z,11.20
2018-11-12T21:22:31.627Z,11.09
2018-11-12T21:27:28.994Z,11.05
2018-11-12T21:32:26.431Z,11.78
2018-11-12T21:37:23.807Z,11.45
2018-11-12T21:42:21.190Z,11.48
2018-11-12T21:47:18.642Z,11.36
2018-11-12T21:52:16.126Z,11.28
2018-11-12T21:57:13.575Z,11.27
2018-11-12T22:02:10.969Z,11.14
2018-11-12T22:07:08.411Z,11.05
2018-11-12T22:12:05.795Z,11.02
2018-11-12T22:17:03.275Z,11.03
2018-11-12T22:22:00.785Z,11.18
2018-11-12T22:26:58.168Z,11.04
2018-11-12T22:31:55.539Z,11.08
2018-11-12T22:36:52.929Z,11.07
2018-11-12T22:41:50.967Z,11.11
2018-11-12T22:46:52.656Z,11.06
2018-11-12T22:51:55.144Z,11.12
2018-11-12T22:56:56.659Z,11.27
2018-11-12T23:01:54.158Z,11.14
2018-11-12T23:06:52.369Z,11.06
2018-11-12T23:11:49.985Z,11.19
2018-11-12T23:16:50.050Z,11.34
2018-11-12T23:21:47.790Z,11.28
2018-11-12T23:26:47.253Z,11.29
2018-11-12T23:31:46.585Z,11.36
2018-11-12T23:36:45.282Z,11.19
2018-11-12T23:41:42.722Z,11.30
2018-11-12T23:46:41.347Z,11.24
2018-11-12T23:51:38.705Z,11.31
2018-11-12T23:56:36.074Z,11.29
